FDK weather

Frederick Municipal Airport
Frederick, Maryland, United States

Public forecast

Using degrees Fahrenheit for public forecast. Weather courtesy of forecast.io.

Current aviation weather report (METAR) for Frederick Municipal Airport

Retrieved 2019/10/19 06:25 UTC (23 minutes ago):

KFDK 190625Z AUTO 16003KT 7SM CLR 03/03 A3007 RMK AO2

Closest aviation forecast (TAF) to Frederick Municipal Airport

Closest forecast is Eastern WV Regional Airport/Shepherd Field, 28.3 nm (52.5 km) W. Retrieved 2019/10/19 06:42 UTC (6 minutes ago):

TAF KMRB 190539Z 1906/2006 00000KT P6SM SKC FM191600 15004KT P6SM FEW250 FM200200 15004KT P6SM BKN200